createdAt,value
2019-05-29T00:00:42.420Z,99536.56
2019-05-29T00:03:14.797Z,99535.08
2019-05-29T00:05:46.721Z,99533.59
2019-05-29T00:08:18.589Z,99533.43
2019-05-29T00:10:50.447Z,99537.73
2019-05-29T00:13:22.445Z,99537.41
2019-05-29T00:15:54.401Z,99542.55
2019-05-29T00:18:26.372Z,99545.05
2019-05-29T00:20:58.190Z,99556.36
2019-05-29T00:23:30.311Z,99551.21
2019-05-29T00:26:02.117Z,99561.98
2019-05-29T00:28:33.996Z,99559.84
2019-05-29T00:31:05.927Z,99563.00
2019-05-29T00:33:37.875Z,99559.61
2019-05-29T00:36:10.363Z,99554.27
2019-05-29T00:38:42.296Z,99550.61
2019-05-29T00:41:15.085Z,99551.46
2019-05-29T00:43:47.348Z,99555.45
2019-05-29T00:46:19.439Z,99552.47
2019-05-29T00:48:51.471Z,99543.53
2019-05-29T00:51:23.364Z,99551.34
2019-05-29T00:53:55.428Z,99550.98
2019-05-29T00:56:27.251Z,99555.48
2019-05-29T00:58:59.290Z,99563.44
2019-05-29T01:01:31.144Z,99563.94
2019-05-29T01:04:03.152Z,99565.23
2019-05-29T01:06:34.941Z,99566.41
2019-05-29T01:09:10.355Z,99564.89
2019-05-29T01:11:42.077Z,99563.55
2019-05-29T01:14:15.145Z,99567.48
2019-05-29T01:16:47.567Z,99570.09
2019-05-29T01:19:25.480Z,99574.23
2019-05-29T01:21:58.551Z,99577.75
2019-05-29T01:24:30.470Z,99579.03
2019-05-29T01:27:02.235Z,99587.94
2019-05-29T01:29:34.058Z,99589.27
2019-05-29T01:32:06.093Z,99596.00
2019-05-29T01:34:37.850Z,99598.36
2019-05-29T01:37:09.709Z,99597.03
2019-05-29T01:39:41.493Z,99600.80
2019-05-29T01:42:13.223Z,99602.58
2019-05-29T01:44:45.224Z,99604.61
2019-05-29T01:47:17.459Z,99603.90
2019-05-29T01:49:49.768Z,99611.09
2019-05-29T01:52:21.912Z,99617.53
2019-05-29T01:54:54.099Z,99617.88
2019-05-29T01:57:25.814Z,99624.10
2019-05-29T01:59:57.923Z,99625.61
2019-05-29T02:02:29.657Z,99633.48
2019-05-29T02:05:01.557Z,99634.81
2019-05-29T02:07:33.380Z,99636.30
2019-05-29T02:10:05.968Z,99642.78
2019-05-29T02:12:37.782Z,99639.61
2019-05-29T02:15:22.869Z,99647.55
2019-05-29T02:17:44.167Z,99647.01
2019-05-29T02:20:19.372Z,99650.52
2019-05-29T02:22:51.200Z,99658.70
2019-05-29T02:25:24.494Z,99661.38
2019-05-29T02:27:56.228Z,99669.14
2019-05-29T02:30:30.673Z,99669.56
2019-05-29T02:33:01.788Z,99676.38
2019-05-29T02:35:34.027Z,99677.62
2019-05-29T02:38:05.825Z,99677.48
2019-05-29T02:40:37.739Z,99677.38
2019-05-29T02:43:09.477Z,99686.95
2019-05-29T02:45:53.555Z,99688.17
2019-05-29T02:48:15.117Z,99689.22
2019-05-29T02:50:47.335Z,99693.83
2019-05-29T02:53:20.035Z,99696.02
2019-05-29T02:55:52.441Z,99707.23
2019-05-29T02:58:25.839Z,99698.23
2019-05-29T03:00:58.375Z,99705.06
2019-05-29T03:03:37.963Z,99712.28
2019-05-29T03:06:04.652Z,99719.88
2019-05-29T03:08:36.394Z,99718.49
2019-05-29T03:11:08.476Z,99724.20
2019-05-29T03:13:40.374Z,99729.57
2019-05-29T03:16:13.266Z,99734.58
2019-05-29T03:18:45.677Z,99731.85
2019-05-29T03:21:17.544Z,99740.14
2019-05-29T03:23:49.317Z,99738.55
2019-05-29T03:26:24.641Z,99749.03
2019-05-29T03:28:54.832Z,99756.41
2019-05-29T03:31:30.027Z,99750.37
2019-05-29T03:34:00.170Z,99769.30
2019-05-29T03:36:39.607Z,99766.16
2019-05-29T03:39:06.854Z,99787.02
2019-05-29T03:41:39.130Z,99791.27
2019-05-29T03:44:11.532Z,99804.11
2019-05-29T03:46:45.876Z,99813.99
2019-05-29T03:49:17.477Z,99820.10
2019-05-29T03:51:49.643Z,99837.70
2019-05-29T03:54:21.460Z,99835.00
2019-05-29T03:56:53.334Z,99854.45
2019-05-29T03:59:26.726Z,99853.99
2019-05-29T04:01:59.286Z,99868.86
2019-05-29T04:04:31.813Z,99871.44
2019-05-29T04:07:04.860Z,99877.55
2019-05-29T04:09:37.370Z,99875.94
2019-05-29T04:12:09.945Z,99883.03
2019-05-29T04:14:42.209Z,99891.92
2019-05-29T04:17:16.733Z,99906.45
2019-05-29T04:19:48.884Z,99909.22
2019-05-29T04:22:28.195Z,99911.86
2019-05-29T04:25:04.331Z,99914.39
2019-05-29T04:27:38.927Z,99915.40
2019-05-29T04:30:11.453Z,99924.08
2019-05-29T04:32:43.280Z,99919.25
2019-05-29T04:35:15.237Z,99923.27
2019-05-29T04:37:47.451Z,99928.05
2019-05-29T04:40:19.296Z,99925.41
2019-05-29T04:42:51.245Z,99932.20
2019-05-29T04:45:23.982Z,99943.02
2019-05-29T04:47:55.825Z,99941.38
2019-05-29T04:50:29.020Z,99957.38
2019-05-29T04:53:01.330Z,99959.11
2019-05-29T04:55:33.170Z,99974.64
2019-05-29T04:58:05.030Z,99983.88
2019-05-29T05:00:37.264Z,99982.30
2019-05-29T05:03:09.408Z,99990.62
2019-05-29T05:05:41.460Z,99995.59
2019-05-29T05:08:13.425Z,100002.91
2019-05-29T05:10:46.067Z,100008.64
2019-05-29T05:13:18.067Z,100016.84
2019-05-29T05:15:52.986Z,100022.95
2019-05-29T05:18:25.071Z,100029.52
2019-05-29T05:20:56.940Z,100038.39
2019-05-29T05:23:30.018Z,100039.93
2019-05-29T05:26:01.964Z,100052.63
2019-05-29T05:28:34.385Z,100049.02
2019-05-29T05:31:06.338Z,100054.56
2019-05-29T05:33:38.655Z,100056.12
2019-05-29T05:36:10.981Z,100060.59
2019-05-29T05:38:43.018Z,100060.69
2019-05-29T05:41:14.872Z,100067.06
2019-05-29T05:43:46.662Z,100079.55
2019-05-29T05:46:18.451Z,100076.39
2019-05-29T05:48:50.417Z,100085.41
2019-05-29T05:51:22.506Z,100092.13
2019-05-29T05:53:54.939Z,100097.31
2019-05-29T05:56:26.814Z,100092.49
2019-05-29T05:58:58.959Z,100099.92
2019-05-29T06:01:31.718Z,100110.12
2019-05-29T06:04:03.996Z,100113.70
2019-05-29T06:06:36.233Z,100118.48
2019-05-29T06:09:09.671Z,100121.98
2019-05-29T06:11:42.545Z,100128.81
2019-05-29T06:14:14.824Z,100125.81
2019-05-29T06:16:47.758Z,100129.19
2019-05-29T06:19:19.887Z,100131.22
2019-05-29T06:21:52.033Z,100140.22
2019-05-29T06:24:24.256Z,100135.77
2019-05-29T06:26:56.177Z,100147.89
2019-05-29T06:29:28.346Z,100144.30
2019-05-29T06:32:00.165Z,100155.08
2019-05-29T06:34:33.494Z,100155.20
2019-05-29T06:37:06.070Z,100163.34
2019-05-29T06:39:37.915Z,100164.20
2019-05-29T06:42:10.222Z,100167.77
2019-05-29T06:44:44.861Z,100168.26
2019-05-29T06:47:16.337Z,100183.84
2019-05-29T06:49:48.882Z,100185.51
2019-05-29T06:52:21.946Z,100186.95
2019-05-29T06:54:54.326Z,100194.73
2019-05-29T06:57:26.313Z,100199.41
2019-05-29T07:00:00.033Z,100202.98
2019-05-29T07:02:32.763Z,100209.09
2019-05-29T07:05:05.506Z,100215.00
2019-05-29T07:07:38.376Z,100218.72
2019-05-29T07:10:11.148Z,100217.77
2019-05-29T07:12:44.513Z,100230.70
2019-05-29T07:15:18.513Z,100229.15
2019-05-29T07:17:50.612Z,100239.32
2019-05-29T07:20:22.666Z,100242.10
2019-05-29T07:22:54.802Z,100250.73
2019-05-29T07:25:26.905Z,100251.56
2019-05-29T07:27:58.715Z,100252.77
2019-05-29T07:30:32.673Z,100264.74
2019-05-29T07:33:04.536Z,100262.48
2019-05-29T07:39:55.039Z,100272.33
2019-05-29T07:42:26.804Z,100280.61
2019-05-29T07:44:58.885Z,100286.97
2019-05-29T07:47:30.721Z,100285.77
2019-05-29T07:50:02.814Z,100288.88
2019-05-29T07:52:35.991Z,100288.76
2019-05-29T07:55:08.931Z,100289.50
2019-05-29T07:57:40.970Z,100301.89
2019-05-29T08:00:15.129Z,100304.87
2019-05-29T08:02:47.497Z,100306.67
2019-05-29T08:05:19.629Z,100316.86
2019-05-29T08:07:51.413Z,100314.82
2019-05-29T08:10:23.851Z,100314.11
2019-05-29T08:12:56.120Z,100325.63
2019-05-29T08:15:28.128Z,100325.37
2019-05-29T08:17:59.948Z,100330.68
2019-05-29T08:20:31.821Z,100343.87
2019-05-29T08:23:03.640Z,100346.27
2019-05-29T08:25:36.045Z,100357.42
2019-05-29T08:28:07.928Z,100357.29
2019-05-29T08:30:41.155Z,100348.76
2019-05-29T08:33:13.523Z,100361.86
2019-05-29T08:35:45.472Z,100363.14
2019-05-29T08:38:17.308Z,100357.15
2019-05-29T08:40:49.599Z,100363.94
2019-05-29T08:43:21.440Z,100372.44
2019-05-29T08:45:53.351Z,100366.78
2019-05-29T08:48:26.188Z,100373.63
2019-05-29T08:50:58.041Z,100377.57
2019-05-29T08:53:29.973Z,100383.81
2019-05-29T08:56:02.229Z,100386.95
2019-05-29T08:58:37.137Z,100390.11
2019-05-29T09:01:07.714Z,100392.72
2019-05-29T09:03:39.672Z,100399.12
2019-05-29T09:06:13.747Z,100403.08
2019-05-29T09:08:46.674Z,100400.97
2019-05-29T09:11:19.982Z,100406.36
2019-05-29T09:13:53.077Z,100410.20
2019-05-29T09:16:25.131Z,100414.17
2019-05-29T09:18:57.005Z,100424.99
2019-05-29T09:21:29.194Z,100433.20
2019-05-29T09:24:00.992Z,100432.75
2019-05-29T09:26:33.035Z,100436.33
2019-05-29T09:29:04.810Z,100438.48
2019-05-29T09:31:36.658Z,100444.22
2019-05-29T09:34:08.443Z,100446.52
2019-05-29T09:36:40.636Z,100450.19
2019-05-29T09:39:12.787Z,100451.81
2019-05-29T09:41:44.983Z,100457.39
2019-05-29T09:44:32.919Z,100454.19
2019-05-29T09:46:50.655Z,100457.11
2019-05-29T09:49:23.870Z,100461.01
2019-05-29T09:51:57.917Z,100463.20
2019-05-29T09:54:29.922Z,100466.10
2019-05-29T09:57:02.846Z,100472.48
2019-05-29T09:59:34.869Z,100476.50
2019-05-29T10:02:08.816Z,100481.25
2019-05-29T10:04:40.703Z,100490.58
2019-05-29T10:07:12.819Z,100491.64
2019-05-29T10:09:44.608Z,100496.73
2019-05-29T10:12:16.769Z,100501.58
2019-05-29T10:14:51.334Z,100516.23
2019-05-29T10:17:22.154Z,100510.61
2019-05-29T10:19:55.367Z,100511.33
2019-05-29T10:22:27.882Z,100522.00
2019-05-29T10:25:00.052Z,100522.86
2019-05-29T10:27:33.025Z,100532.25
2019-05-29T10:30:05.296Z,100521.52
2019-05-29T10:32:37.253Z,100532.81
2019-05-29T10:35:09.087Z,100529.55
2019-05-29T10:37:42.585Z,100535.23
2019-05-29T10:40:15.581Z,100541.12
2019-05-29T10:42:49.013Z,100532.45
2019-05-29T10:45:21.423Z,100541.56
2019-05-29T10:47:54.104Z,100543.09
2019-05-29T10:50:26.007Z,100546.96
2019-05-29T10:52:58.097Z,100546.22
2019-05-29T10:55:29.924Z,100547.37
2019-05-29T10:58:01.986Z,100552.42
2019-05-29T11:00:37.982Z,100552.47
2019-05-29T11:03:07.795Z,100551.96
2019-05-29T11:05:39.547Z,100554.78
2019-05-29T11:08:11.643Z,100556.25
2019-05-29T11:10:43.406Z,100557.84
2019-05-29T11:13:15.869Z,100556.91
2019-05-29T11:15:48.563Z,100558.03
2019-05-29T11:18:20.719Z,100560.29
2019-05-29T11:20:53.456Z,100565.80
2019-05-29T11:23:25.429Z,100572.23
2019-05-29T11:25:58.199Z,100589.64
2019-05-29T11:28:30.507Z,100585.27
2019-05-29T11:31:06.175Z,100591.62
2019-05-29T11:33:36.077Z,100587.84
2019-05-29T11:36:12.585Z,100581.25
2019-05-29T11:38:41.648Z,100583.11
2019-05-29T11:41:25.901Z,100583.39
2019-05-29T11:43:47.843Z,100584.19
2019-05-29T11:46:19.653Z,100582.45
2019-05-29T11:48:51.544Z,100591.38
2019-05-29T11:51:23.894Z,100589.04
2019-05-29T11:53:55.977Z,100586.66
2019-05-29T11:56:27.939Z,100591.59
2019-05-29T11:59:00.237Z,100596.65
2019-05-29T12:01:48.979Z,100597.69
2019-05-29T12:04:22.986Z,100601.58
2019-05-29T12:06:40.449Z,100597.33
2019-05-29T12:09:13.222Z,100597.72
2019-05-29T12:11:45.047Z,100599.80
2019-05-29T12:14:17.158Z,100596.14
2019-05-29T12:16:48.930Z,100597.42
2019-05-29T12:19:22.091Z,100608.23
2019-05-29T12:21:54.449Z,100611.83
2019-05-29T12:24:27.327Z,100611.41
2019-05-29T12:26:59.120Z,100616.61
2019-05-29T12:29:31.153Z,100617.63
2019-05-29T12:32:08.146Z,100623.23
2019-05-29T12:34:36.729Z,100629.15
2019-05-29T12:37:08.607Z,100633.16
2019-05-29T12:39:40.634Z,100632.43
2019-05-29T12:42:12.425Z,100632.55
2019-05-29T12:44:44.607Z,100633.52
2019-05-29T12:47:16.361Z,100634.06
2019-05-29T12:49:48.255Z,100633.83
2019-05-29T12:52:20.053Z,100641.16
2019-05-29T12:54:52.234Z,100643.92
2019-05-29T12:57:24.042Z,100650.16
2019-05-29T12:59:56.251Z,100645.45
2019-05-29T13:02:28.026Z,100648.30
2019-05-29T13:05:08.381Z,100651.98
2019-05-29T13:07:33.554Z,100650.98
2019-05-29T13:10:06.565Z,100656.80
2019-05-29T13:12:39.531Z,100654.37
2019-05-29T13:15:14.070Z,100660.36
2019-05-29T13:17:45.956Z,100650.98
2019-05-29T13:20:22.036Z,100656.92
2019-05-29T13:22:52.285Z,100653.90
2019-05-29T13:25:25.723Z,100661.84
2019-05-29T13:27:59.407Z,100658.93
2019-05-29T13:30:32.225Z,100663.91
2019-05-29T13:33:07.392Z,100665.59
2019-05-29T13:35:37.899Z,100664.72
2019-05-29T13:38:09.933Z,100654.20
2019-05-29T13:40:41.870Z,100659.97
2019-05-29T13:43:15.810Z,100669.14
2019-05-29T13:45:47.686Z,100665.57
2019-05-29T13:48:21.333Z,100660.33
2019-05-29T13:50:53.309Z,100666.24
2019-05-29T13:53:25.121Z,100666.27
2019-05-29T13:55:57.745Z,100668.30
2019-05-29T13:58:29.629Z,100667.11
2019-05-29T14:01:02.477Z,100665.51
2019-05-29T14:03:35.351Z,100671.52
2019-05-29T14:06:09.356Z,100670.96
2019-05-29T14:08:41.095Z,100671.60
2019-05-29T14:11:12.989Z,100668.38
2019-05-29T14:13:44.928Z,100678.14
2019-05-29T14:16:17.181Z,100676.48
2019-05-29T14:18:49.110Z,100669.44
2019-05-29T14:21:21.003Z,100677.05
2019-05-29T14:23:52.910Z,100665.93
2019-05-29T14:26:24.863Z,100673.66
2019-05-29T14:28:56.662Z,100681.06
2019-05-29T14:31:28.965Z,100680.44
2019-05-29T14:34:00.962Z,100678.10
2019-05-29T14:36:32.994Z,100674.08
2019-05-29T14:39:07.603Z,100682.16
2019-05-29T14:41:40.137Z,100681.25
2019-05-29T14:44:12.124Z,100676.94
2019-05-29T14:46:44.267Z,100684.60
2019-05-29T14:49:16.039Z,100686.83
2019-05-29T14:51:47.907Z,100686.95
2019-05-29T14:54:19.705Z,100699.34
2019-05-29T14:56:51.605Z,100695.67
2019-05-29T14:59:23.458Z,100700.14
2019-05-29T15:01:56.012Z,100700.70
2019-05-29T15:04:27.825Z,100703.02
2019-05-29T15:07:00.043Z,100697.63
2019-05-29T15:09:31.838Z,100700.62
2019-05-29T15:12:04.037Z,100693.48
2019-05-29T15:14:35.905Z,100695.04
2019-05-29T15:17:09.041Z,100695.14
2019-05-29T15:19:41.052Z,100701.34
2019-05-29T15:22:14.145Z,100703.09
2019-05-29T15:25:01.505Z,100705.83
2019-05-29T15:27:20.250Z,100708.83
2019-05-29T15:29:52.045Z,100715.45
2019-05-29T15:32:24.377Z,100710.91
2019-05-29T15:34:56.182Z,100720.70
2019-05-29T15:37:28.109Z,100714.05
2019-05-29T15:39:59.936Z,100718.40
2019-05-29T15:42:32.174Z,100716.59
2019-05-29T15:45:04.096Z,100732.66
2019-05-29T15:47:36.580Z,100728.86
2019-05-29T15:50:09.199Z,100733.23
2019-05-29T15:52:41.288Z,100735.06
2019-05-29T15:55:28.422Z,100737.05
2019-05-29T15:57:49.024Z,100742.34
2019-05-29T16:00:22.024Z,100746.91
2019-05-29T16:02:54.602Z,100746.42
2019-05-29T16:05:26.394Z,100743.97
2019-05-29T16:07:58.282Z,100743.66
2019-05-29T16:10:30.110Z,100745.74
2019-05-29T16:13:01.925Z,100746.69
2019-05-29T16:15:33.758Z,100754.42
2019-05-29T16:18:19.021Z,100754.41
2019-05-29T16:20:39.294Z,100760.53
2019-05-29T16:23:12.534Z,100764.82
2019-05-29T16:25:44.723Z,100767.38
2019-05-29T16:28:17.274Z,100772.05
2019-05-29T16:30:49.312Z,100770.15
2019-05-29T16:33:21.653Z,100775.33
2019-05-29T16:35:53.682Z,100776.23
2019-05-29T16:38:27.030Z,100773.34
2019-05-29T16:40:58.883Z,100780.75
2019-05-29T16:43:30.841Z,100771.03
2019-05-29T16:46:02.746Z,100770.08
2019-05-29T16:48:34.966Z,100777.77
2019-05-29T16:51:06.780Z,100771.59
2019-05-29T16:53:39.841Z,100776.46
2019-05-29T16:56:12.719Z,100783.58
2019-05-29T16:58:44.631Z,100781.02
2019-05-29T17:01:17.387Z,100789.11
2019-05-29T17:03:49.679Z,100791.09
2019-05-29T17:06:22.452Z,100793.31
2019-05-29T17:08:55.595Z,100796.67
2019-05-29T17:11:27.408Z,100797.32
2019-05-29T17:13:59.268Z,100804.88
2019-05-29T17:16:31.146Z,100807.03
2019-05-29T17:19:04.470Z,100810.38
2019-05-29T17:21:36.395Z,100815.14
2019-05-29T17:24:08.496Z,100820.82
2019-05-29T17:26:40.522Z,100824.62
2019-05-29T17:29:12.878Z,100828.70
2019-05-29T17:31:44.840Z,100828.51
2019-05-29T17:34:18.939Z,100825.05
2019-05-29T17:36:52.689Z,100830.12
2019-05-29T17:39:25.193Z,100831.04
2019-05-29T17:41:57.368Z,100831.02
2019-05-29T17:44:29.270Z,100834.33
2019-05-29T17:47:01.191Z,100834.63
2019-05-29T17:49:34.767Z,100834.94
2019-05-29T17:52:06.937Z,100838.86
2019-05-29T17:54:39.029Z,100847.23
2019-05-29T17:57:10.937Z,100843.64
2019-05-29T17:59:42.814Z,100854.89
2019-05-29T18:02:15.967Z,100855.89
2019-05-29T18:04:48.413Z,100857.13
2019-05-29T18:07:20.614Z,100865.50
2019-05-29T18:09:52.630Z,100865.65
2019-05-29T18:12:25.096Z,100874.96
2019-05-29T18:14:57.546Z,100880.78
2019-05-29T18:17:29.487Z,100883.33
2019-05-29T18:20:01.526Z,100886.27
2019-05-29T18:22:33.436Z,100888.67
2019-05-29T18:25:06.815Z,100893.12
2019-05-29T18:27:38.583Z,100897.31
2019-05-29T18:30:11.824Z,100902.26
2019-05-29T18:32:43.770Z,100904.92
2019-05-29T18:35:16.914Z,100905.40
2019-05-29T18:37:48.827Z,100911.64
2019-05-29T18:40:22.302Z,100914.15
2019-05-29T18:42:54.509Z,100923.41
2019-05-29T18:45:27.744Z,100927.95
2019-05-29T18:48:01.469Z,100935.28
2019-05-29T18:50:33.556Z,100936.44
2019-05-29T18:53:05.479Z,100944.71
2019-05-29T18:55:37.406Z,100950.81
2019-05-29T18:58:09.238Z,100954.60
2019-05-29T19:00:41.362Z,100959.95
2019-05-29T19:03:13.122Z,100960.28
2019-05-29T19:05:45.686Z,100966.95
2019-05-29T19:08:17.888Z,100971.73
2019-05-29T19:10:50.226Z,100986.59
2019-05-29T19:13:23.446Z,100992.30
2019-05-29T19:15:55.872Z,100986.73
2019-05-29T19:18:28.273Z,100993.03
2019-05-29T19:21:00.179Z,100995.64
2019-05-29T19:23:32.960Z,100995.12
2019-05-29T19:26:04.915Z,100995.26
2019-05-29T19:28:37.215Z,100997.86
2019-05-29T19:31:09.148Z,101005.01
2019-05-29T19:33:41.028Z,101003.61
2019-05-29T19:36:14.663Z,101010.07
2019-05-29T19:38:46.502Z,101015.30
2019-05-29T19:41:18.310Z,101014.29
2019-05-29T19:43:50.144Z,101021.67
2019-05-29T19:46:22.043Z,101020.02
2019-05-29T19:48:53.918Z,101029.11
2019-05-29T19:51:27.267Z,101031.91
2019-05-29T19:53:59.301Z,101033.83
2019-05-29T19:56:31.733Z,101035.73
2019-05-29T19:59:04.052Z,101037.63
2019-05-29T20:01:40.236Z,101046.52
2019-05-29T20:04:09.546Z,101047.73
2019-05-29T20:06:41.414Z,101057.27
2019-05-29T20:09:13.254Z,101059.71
2019-05-29T20:11:45.331Z,101059.55
2019-05-29T20:14:17.370Z,101064.64
2019-05-29T20:16:49.478Z,101058.14
2019-05-29T20:19:21.304Z,101055.82
2019-05-29T20:21:53.622Z,101058.75
2019-05-29T20:24:26.718Z,101062.55
2019-05-29T20:26:59.913Z,101058.97
2019-05-29T20:29:32.399Z,101061.05
2019-05-29T20:32:04.749Z,101068.50
2019-05-29T20:34:36.916Z,101070.77
2019-05-29T20:37:09.268Z,101077.38
2019-05-29T20:39:41.018Z,101082.09
2019-05-29T20:42:13.108Z,101082.11
2019-05-29T20:44:44.880Z,101087.39
2019-05-29T20:47:16.943Z,101083.89
2019-05-29T20:49:48.753Z,101092.64
2019-05-29T20:52:21.271Z,101088.99
2019-05-29T20:54:53.236Z,101095.11
2019-05-29T20:57:26.933Z,101096.39
2019-05-29T20:59:59.032Z,101097.79
2019-05-29T21:02:32.005Z,101099.46
2019-05-29T21:05:04.394Z,101105.83
2019-05-29T21:07:36.709Z,101101.39
2019-05-29T21:10:10.770Z,101104.41
2019-05-29T21:12:46.123Z,101106.82
2019-05-29T21:15:18.318Z,101111.14
2019-05-29T21:17:50.426Z,101116.28
2019-05-29T21:20:22.328Z,101119.76
2019-05-29T21:22:54.208Z,101127.27
2019-05-29T21:25:26.916Z,101130.15
2019-05-29T21:27:58.763Z,101130.97
2019-05-29T21:30:30.541Z,101132.73
2019-05-29T21:33:02.626Z,101137.01
2019-05-29T21:35:34.454Z,101139.89
2019-05-29T21:38:06.688Z,101145.51
2019-05-29T21:40:38.518Z,101146.23
2019-05-29T21:43:10.580Z,101151.66
2019-05-29T21:45:43.119Z,101157.80
2019-05-29T21:48:15.082Z,101159.83
2019-05-29T21:50:47.406Z,101158.39
2019-05-29T21:53:19.959Z,101158.27
2019-05-29T21:55:51.768Z,101165.16
2019-05-29T21:58:25.347Z,101167.11
2019-05-29T22:00:57.401Z,101172.23
2019-05-29T22:03:29.792Z,101164.27
2019-05-29T22:06:01.554Z,101172.02
2019-05-29T22:08:33.729Z,101179.30
2019-05-29T22:11:05.496Z,101182.95
2019-05-29T22:13:37.629Z,101178.39
2019-05-29T22:16:09.383Z,101175.13
2019-05-29T22:18:41.450Z,101180.13
2019-05-29T22:21:13.231Z,101181.30
2019-05-29T22:23:45.474Z,101176.75
2019-05-29T22:26:17.606Z,101177.92
2019-05-29T22:28:51.137Z,101179.20
2019-05-29T22:31:23.266Z,101176.98
2019-05-29T22:33:57.479Z,101179.47
2019-05-29T22:36:29.360Z,101178.38
2019-05-29T22:39:01.841Z,101191.24
2019-05-29T22:41:35.447Z,101195.43
2019-05-29T22:44:07.664Z,101198.74
2019-05-29T22:46:40.573Z,101204.67
2019-05-29T22:49:12.588Z,101195.84
2019-05-29T22:51:45.523Z,101197.70
2019-05-29T22:54:17.700Z,101194.92
2019-05-29T22:56:49.478Z,101199.00
2019-05-29T22:59:31.437Z,101195.74
2019-05-29T23:01:56.292Z,101194.64
2019-05-29T23:04:28.489Z,101190.95
2019-05-29T23:07:00.473Z,101196.06
2019-05-29T23:09:33.900Z,101199.36
2019-05-29T23:12:05.858Z,101201.35
2019-05-29T23:14:37.716Z,101214.53
2019-05-29T23:17:09.467Z,101213.83
2019-05-29T23:19:41.906Z,101213.12
2019-05-29T23:22:13.646Z,101214.97
2019-05-29T23:24:45.761Z,101214.33
2019-05-29T23:27:17.491Z,101211.97
2019-05-29T23:29:49.673Z,101216.50
2019-05-29T23:32:21.498Z,101219.80
2019-05-29T23:34:54.904Z,101222.24
2019-05-29T23:37:26.835Z,101216.42
2019-05-29T23:39:59.367Z,101225.78
2019-05-29T23:42:31.173Z,101220.89
2019-05-29T23:45:03.779Z,101222.80
2019-05-29T23:47:35.837Z,101226.08
2019-05-29T23:50:08.460Z,101225.89
2019-05-29T23:52:40.333Z,101227.80
2019-05-29T23:55:12.715Z,101238.99
2019-05-29T23:57:44.548Z,101244.77
